createdAt,value
2019-03-18T00:01:53.517Z,60.88
2019-03-18T00:04:25.857Z,51.48
2019-03-18T00:06:58.178Z,51.72
2019-03-18T00:09:31.041Z,53.57
2019-03-18T00:12:03.025Z,55.81
2019-03-18T00:14:35.583Z,58.19
2019-03-18T00:17:09.797Z,59.89
2019-03-18T00:19:43.070Z,60.75
2019-03-18T00:22:15.969Z,62.33
2019-03-18T00:24:48.107Z,62.65
2019-03-18T00:27:20.515Z,61.58
2019-03-18T00:29:52.786Z,52.33
2019-03-18T00:32:25.252Z,52.04
2019-03-18T00:34:57.628Z,54.07
2019-03-18T00:37:30.096Z,56.34
2019-03-18T00:40:02.009Z,57.77
2019-03-18T00:42:34.437Z,58.95
2019-03-18T00:45:14.596Z,61.25
2019-03-18T00:47:42.861Z,63.66
2019-03-18T00:50:19.239Z,56.76
2019-03-18T00:52:51.717Z,51.87
2019-03-18T00:55:23.630Z,54.19
2019-03-18T00:57:56.039Z,56.52
2019-03-18T01:00:28.513Z,58.36
2019-03-18T01:03:00.882Z,59.98
2019-03-18T01:05:33.164Z,61.61
2019-03-18T01:08:05.635Z,62.41
2019-03-18T01:10:37.902Z,63.85
2019-03-18T01:13:10.376Z,52.49
2019-03-18T01:15:42.286Z,53.16
2019-03-18T01:18:16.245Z,55.76
2019-03-18T01:20:49.640Z,58.35
2019-03-18T01:23:22.010Z,60.61
2019-03-18T01:25:55.305Z,61.78
2019-03-18T01:28:27.265Z,64.23
2019-03-18T01:30:59.179Z,59.36
2019-03-18T01:33:31.226Z,53.83
2019-03-18T01:36:03.562Z,56.01
2019-03-18T01:38:35.939Z,57.85
2019-03-18T01:41:08.208Z,60.69
2019-03-18T01:43:40.580Z,62.33
2019-03-18T01:46:12.850Z,63.95
2019-03-18T01:48:45.222Z,56.13
2019-03-18T01:51:17.127Z,51.32
2019-03-18T01:53:49.089Z,53.70
2019-03-18T01:56:21.407Z,55.88
2019-03-18T01:58:53.465Z,58.87
2019-03-18T02:01:25.376Z,60.21
2019-03-18T02:03:58.014Z,61.85
2019-03-18T02:06:29.923Z,63.95
2019-03-18T02:09:02.246Z,55.79
2019-03-18T02:11:34.521Z,53.08
2019-03-18T02:14:06.989Z,55.07
2019-03-18T02:16:39.264Z,57.22
2019-03-18T02:19:11.944Z,59.04
2019-03-18T02:21:44.209Z,60.52
2019-03-18T02:24:16.679Z,61.64
2019-03-18T02:26:49.059Z,64.01
2019-03-18T02:29:21.432Z,53.87
2019-03-18T02:31:53.702Z,54.31
2019-03-18T02:34:26.177Z,56.30
2019-03-18T02:36:58.079Z,57.96
2019-03-18T02:39:30.401Z,60.37
2019-03-18T02:42:02.679Z,61.76
2019-03-18T02:44:35.042Z,63.63
2019-03-18T02:47:07.318Z,58.18
2019-03-18T02:49:39.685Z,52.78
2019-03-18T02:52:12.056Z,54.64
2019-03-18T02:54:44.433Z,56.80
2019-03-18T02:57:16.758Z,58.66
2019-03-18T02:59:49.174Z,59.65
2019-03-18T03:02:21.077Z,61.67
2019-03-18T03:04:53.051Z,64.33
2019-03-18T03:07:25.368Z,60.10
2019-03-18T03:09:57.740Z,50.20
2019-03-18T03:12:30.016Z,51.84
2019-03-18T03:15:02.392Z,54.38
2019-03-18T03:17:35.673Z,56.76
2019-03-18T03:20:10.909Z,58.95
2019-03-18T03:22:43.290Z,60.44
2019-03-18T03:25:15.758Z,61.09
2019-03-18T03:27:47.659Z,64.24
2019-03-18T03:30:19.998Z,54.98
2019-03-18T03:32:52.309Z,50.58
2019-03-18T03:35:24.422Z,52.63
2019-03-18T03:37:56.336Z,55.38
2019-03-18T03:40:28.760Z,57.54
2019-03-18T03:43:01.036Z,59.01
2019-03-18T03:45:33.403Z,60.14
2019-03-18T03:48:05.534Z,61.78
2019-03-18T03:50:38.047Z,63.86
2019-03-18T03:53:10.175Z,59.04
2019-03-18T03:55:42.582Z,53.33
2019-03-18T03:58:14.858Z,55.38
2019-03-18T04:00:47.228Z,57.70
2019-03-18T04:03:19.604Z,59.57
2019-03-18T04:05:53.120Z,61.26
2019-03-18T04:08:25.370Z,63.05
2019-03-18T04:10:57.341Z,61.49
2019-03-18T04:13:29.600Z,52.68
2019-03-18T04:16:01.665Z,54.01
2019-03-18T04:18:33.935Z,56.70
2019-03-18T04:21:06.718Z,58.62
2019-03-18T04:23:38.985Z,60.52
2019-03-18T04:26:11.369Z,61.41
2019-03-18T04:28:43.681Z,64.16
2019-03-18T04:31:15.652Z,57.71
2019-03-18T04:33:47.991Z,52.38
2019-03-18T04:36:20.428Z,54.29
2019-03-18T04:38:52.707Z,56.47
2019-03-18T04:41:25.980Z,59.24
2019-03-18T04:43:58.262Z,61.02
2019-03-18T04:46:37.088Z,62.29
2019-03-18T04:49:11.022Z,62.38
2019-03-18T04:51:49.377Z,52.21
2019-03-18T04:54:23.117Z,52.99
2019-03-18T04:56:55.664Z,55.65
2019-03-18T04:59:28.129Z,58.17
2019-03-18T05:02:00.536Z,60.52
2019-03-18T05:04:32.809Z,62.08
2019-03-18T05:07:05.812Z,64.14
2019-03-18T05:09:38.165Z,59.73
2019-03-18T05:12:10.948Z,52.97
2019-03-18T05:14:42.850Z,54.77
2019-03-18T05:17:26.198Z,57.55
2019-03-18T05:19:48.806Z,59.55
2019-03-18T05:22:21.564Z,61.38
2019-03-18T05:24:53.825Z,63.46
2019-03-18T05:27:26.204Z,56.01
2019-03-18T05:29:58.473Z,52.87
2019-03-18T05:32:30.900Z,55.48
2019-03-18T05:35:02.807Z,57.92
2019-03-18T05:37:35.172Z,60.13
2019-03-18T05:40:09.297Z,62.04
2019-03-18T05:42:41.655Z,63.83
2019-03-18T05:45:13.567Z,55.60
2019-03-18T05:47:45.900Z,51.75
2019-03-18T05:50:18.271Z,54.50
2019-03-18T05:52:50.633Z,57.07
2019-03-18T05:55:22.912Z,58.81
2019-03-18T05:57:55.374Z,60.23
2019-03-18T06:00:27.413Z,62.19
2019-03-18T06:02:59.935Z,63.43
2019-03-18T06:05:32.303Z,53.42
2019-03-18T06:08:04.668Z,52.33
2019-03-18T06:10:37.035Z,54.62
2019-03-18T06:13:09.586Z,57.40
2019-03-18T06:15:41.884Z,59.41
2019-03-18T06:18:13.940Z,60.77
2019-03-18T06:20:46.212Z,61.59
2019-03-18T06:23:19.206Z,63.17
2019-03-18T06:25:51.118Z,53.80
2019-03-18T06:28:23.432Z,54.34
2019-03-18T06:30:55.808Z,56.52
2019-03-18T06:33:28.180Z,58.41
2019-03-18T06:36:00.446Z,60.19
2019-03-18T06:38:32.915Z,61.50
2019-03-18T06:41:06.423Z,62.43
2019-03-18T06:43:38.838Z,62.09
2019-03-18T06:46:11.162Z,53.38
2019-03-18T06:48:43.132Z,55.56
2019-03-18T06:51:15.391Z,58.24
2019-03-18T06:53:47.872Z,59.67
2019-03-18T06:56:20.138Z,61.06
2019-03-18T06:58:52.624Z,62.11
2019-03-18T07:01:24.886Z,63.11
2019-03-18T07:03:57.099Z,56.81
2019-03-18T07:06:29.419Z,56.28
2019-03-18T07:09:03.328Z,58.03
2019-03-18T07:11:35.603Z,59.84
2019-03-18T07:14:07.977Z,60.79
2019-03-18T07:16:40.247Z,61.53
2019-03-18T07:19:12.618Z,62.15
2019-03-18T07:21:45.098Z,61.99
2019-03-18T07:24:18.100Z,54.62
2019-03-18T07:26:50.448Z,55.71
2019-03-18T07:29:22.926Z,57.60
2019-03-18T07:31:56.604Z,58.61
2019-03-18T07:34:29.107Z,59.48
2019-03-18T07:37:01.472Z,59.66
2019-03-18T07:39:33.538Z,60.37
2019-03-18T07:42:06.751Z,61.44
2019-03-18T07:44:39.106Z,60.71
2019-03-18T07:47:11.366Z,61.48
2019-03-18T07:49:43.737Z,62.31
2019-03-18T07:52:16.013Z,58.44
2019-03-18T07:54:48.387Z,54.45
2019-03-18T07:57:20.653Z,56.30
2019-03-18T07:59:53.021Z,57.99
2019-03-18T08:02:25.149Z,59.11
2019-03-18T08:04:57.662Z,59.99
2019-03-18T08:07:29.577Z,60.61
2019-03-18T08:10:02.522Z,61.16
2019-03-18T08:12:35.802Z,61.40
2019-03-18T08:15:13.213Z,61.23
2019-03-18T08:17:45.568Z,61.05
2019-03-18T08:20:17.941Z,60.74
2019-03-18T08:22:50.210Z,61.50
2019-03-18T08:25:23.097Z,61.60
2019-03-18T08:27:55.357Z,61.52
2019-03-18T08:30:27.736Z,62.18
2019-03-18T08:32:59.647Z,62.36
2019-03-18T08:35:32.269Z,62.87
2019-03-18T08:38:04.545Z,53.31
2019-03-18T08:40:36.988Z,53.71
2019-03-18T08:43:09.287Z,55.69
2019-03-18T08:45:41.758Z,57.29
2019-03-18T08:48:14.032Z,57.85
2019-03-18T08:50:46.406Z,57.81
2019-03-18T08:53:18.777Z,58.15
2019-03-18T08:55:51.143Z,58.79
2019-03-18T08:58:24.721Z,58.57
2019-03-18T09:00:57.221Z,57.72
2019-03-18T09:03:29.589Z,58.10
2019-03-18T09:06:02.084Z,57.40
2019-03-18T09:08:34.333Z,57.60
2019-03-18T09:11:06.871Z,57.82
2019-03-18T09:13:38.780Z,57.16
2019-03-18T09:16:12.581Z,56.50
2019-03-18T09:18:44.848Z,57.02
2019-03-18T09:21:17.321Z,57.22
2019-03-18T09:23:49.697Z,58.08
2019-03-18T09:26:22.791Z,58.11
2019-03-18T09:28:55.800Z,58.55
2019-03-18T09:31:28.238Z,58.62
2019-03-18T09:34:00.254Z,58.10
2019-03-18T09:36:32.581Z,58.54
2019-03-18T09:39:06.283Z,58.70
2019-03-18T09:41:38.658Z,59.27
2019-03-18T09:44:11.030Z,57.90
2019-03-18T09:46:43.399Z,58.03
2019-03-18T09:49:21.492Z,57.39
2019-03-18T09:51:49.270Z,57.66
2019-03-18T09:54:21.185Z,58.20
2019-03-18T09:56:53.150Z,58.14
2019-03-18T09:59:26.585Z,58.01
2019-03-18T10:02:00.241Z,58.21
2019-03-18T10:04:32.459Z,57.33
2019-03-18T10:07:04.838Z,57.47
2019-03-18T10:09:37.099Z,56.54
2019-03-18T10:12:09.478Z,56.40
2019-03-18T10:14:41.843Z,54.89
2019-03-18T10:17:13.846Z,55.07
2019-03-18T10:19:46.176Z,55.56
2019-03-18T10:22:18.764Z,54.98
2019-03-18T10:24:50.670Z,54.62
2019-03-18T10:27:23.084Z,54.35
2019-03-18T10:29:55.458Z,54.44
2019-03-18T10:32:27.840Z,54.38
2019-03-18T10:35:00.323Z,55.07
2019-03-18T10:37:32.683Z,55.41
2019-03-18T10:40:06.894Z,55.73
2019-03-18T10:42:39.273Z,55.56
2019-03-18T10:45:14.306Z,55.32
2019-03-18T10:47:46.778Z,55.80
2019-03-18T10:50:20.275Z,56.18
2019-03-18T10:52:52.683Z,56.25
2019-03-18T10:55:24.918Z,56.75
2019-03-18T10:57:57.255Z,56.61
2019-03-18T11:00:29.622Z,57.00
2019-03-18T11:03:01.995Z,56.99
2019-03-18T11:05:34.385Z,56.61
2019-03-18T11:08:06.582Z,56.51
2019-03-18T11:10:38.919Z,56.35
2019-03-18T11:13:11.292Z,56.76
2019-03-18T11:15:43.203Z,54.86
2019-03-18T11:18:15.616Z,54.92
2019-03-18T11:20:47.995Z,54.69
2019-03-18T11:23:20.367Z,54.66
2019-03-18T11:25:55.401Z,54.76
2019-03-18T11:28:27.767Z,53.78
2019-03-18T11:30:59.678Z,53.76
2019-03-18T11:33:32.715Z,53.42
2019-03-18T11:36:05.096Z,53.48
2019-03-18T11:38:37.469Z,53.69
2019-03-18T11:41:09.840Z,53.00
2019-03-18T11:43:42.417Z,53.11
2019-03-18T11:46:14.787Z,51.85
2019-03-18T11:48:47.155Z,51.50
2019-03-18T11:51:19.532Z,51.35
2019-03-18T11:53:52.015Z,51.70
2019-03-18T11:56:24.590Z,51.13
2019-03-18T11:58:57.058Z,49.88
2019-03-18T12:01:29.941Z,49.35
2019-03-18T12:04:02.407Z,48.77
2019-03-18T12:06:34.892Z,47.72
2019-03-18T12:09:08.392Z,48.36
2019-03-18T12:11:40.964Z,49.22
2019-03-18T12:14:13.440Z,48.92
2019-03-18T12:16:45.700Z,49.49
2019-03-18T12:19:18.141Z,49.06
2019-03-18T12:21:50.454Z,48.96
2019-03-18T12:24:23.533Z,48.37
2019-03-18T12:26:55.918Z,49.29
2019-03-18T12:29:28.290Z,49.66
2019-03-18T12:32:00.541Z,49.91
2019-03-18T12:34:32.922Z,49.51
2019-03-18T12:37:05.196Z,49.48
2019-03-18T12:39:37.169Z,49.36
2019-03-18T12:42:10.166Z,49.20
2019-03-18T12:44:42.509Z,47.86
2019-03-18T12:47:14.881Z,48.09
2019-03-18T12:49:47.270Z,47.15
2019-03-18T12:52:19.638Z,46.49
2019-03-18T12:54:52.186Z,47.02
2019-03-18T12:57:24.713Z,47.43
2019-03-18T12:59:57.402Z,47.99
2019-03-18T13:02:29.538Z,46.83
2019-03-18T13:05:01.906Z,47.03
2019-03-18T13:07:34.275Z,46.44
2019-03-18T13:10:11.053Z,46.76
2019-03-18T13:12:43.430Z,46.61
2019-03-18T13:15:22.249Z,46.01
2019-03-18T13:17:54.844Z,45.35
2019-03-18T13:20:28.369Z,46.12
2019-03-18T13:23:00.685Z,46.71
2019-03-18T13:25:33.055Z,47.18
2019-03-18T13:28:05.431Z,47.12
2019-03-18T13:30:37.812Z,47.12
2019-03-18T13:33:10.184Z,47.51
2019-03-18T13:35:43.231Z,48.07
2019-03-18T13:38:15.788Z,48.76
2019-03-18T13:40:48.115Z,48.70
2019-03-18T13:43:20.489Z,48.88
2019-03-18T13:45:55.606Z,49.12
2019-03-18T13:48:26.772Z,49.20
2019-03-18T13:50:59.140Z,49.49
2019-03-18T13:53:31.402Z,49.87
2019-03-18T13:56:03.782Z,50.44
2019-03-18T13:58:36.260Z,50.53
2019-03-18T14:01:08.615Z,51.15
2019-03-18T14:03:40.999Z,50.45
2019-03-18T14:06:13.383Z,50.90
2019-03-18T14:08:46.863Z,51.13
2019-03-18T14:11:20.988Z,51.18
2019-03-18T14:13:53.379Z,50.96
2019-03-18T14:16:25.735Z,50.89
2019-03-18T14:18:58.086Z,50.99
2019-03-18T14:21:33.406Z,50.64
2019-03-18T14:24:04.472Z,50.45
2019-03-18T14:26:36.856Z,50.11
2019-03-18T14:29:09.228Z,50.56
2019-03-18T14:31:43.768Z,50.36
2019-03-18T14:34:15.764Z,50.55
2019-03-18T14:36:48.179Z,50.73
2019-03-18T14:39:20.604Z,50.39
2019-03-18T14:41:53.206Z,49.11
2019-03-18T14:44:25.365Z,49.24
2019-03-18T14:46:58.286Z,49.55
2019-03-18T14:49:30.665Z,48.99
2019-03-18T14:52:05.695Z,48.78
2019-03-18T14:54:38.670Z,48.32
2019-03-18T14:57:11.151Z,50.10
2019-03-18T14:59:43.519Z,47.69
2019-03-18T15:02:15.992Z,46.30
2019-03-18T15:04:48.261Z,45.81
2019-03-18T15:07:20.237Z,45.88
2019-03-18T15:09:52.603Z,44.93
2019-03-18T15:12:24.967Z,43.50
2019-03-18T15:14:57.342Z,42.94
2019-03-18T15:17:29.724Z,41.27
2019-03-18T15:20:02.745Z,39.61
2019-03-18T15:22:35.183Z,37.96
2019-03-18T15:25:24.113Z,37.58
2019-03-18T15:27:59.970Z,37.37
2019-03-18T15:30:36.602Z,36.75
2019-03-18T15:33:10.171Z,34.55
2019-03-18T15:38:43.456Z,34.34
2019-03-18T15:41:23.008Z,33.76
2019-03-18T15:44:07.588Z,33.97
2019-03-18T15:46:48.108Z,34.10
2019-03-18T15:49:21.129Z,33.82
2019-03-18T15:51:54.658Z,33.78
2019-03-18T15:54:54.103Z,34.53
2019-03-18T15:57:29.870Z,34.68
2019-03-18T15:59:59.383Z,35.35
2019-03-18T16:02:31.712Z,36.54
2019-03-18T16:05:03.701Z,37.23
2019-03-18T16:07:36.010Z,37.94
2019-03-18T16:10:12.901Z,39.04
2019-03-18T16:12:46.354Z,40.16
2019-03-18T16:15:19.775Z,40.78
2019-03-18T16:17:52.151Z,42.06
2019-03-18T16:20:27.013Z,42.45
2019-03-18T16:22:59.333Z,43.19
2019-03-18T16:25:32.020Z,43.80
2019-03-18T16:28:04.186Z,44.55
2019-03-18T16:30:36.164Z,45.00
2019-03-18T16:33:08.518Z,45.54
2019-03-18T16:35:40.885Z,46.10
2019-03-18T16:38:12.798Z,46.61
2019-03-18T16:40:45.232Z,47.82
2019-03-18T16:43:17.592Z,48.39
2019-03-18T16:45:49.966Z,49.16
2019-03-18T16:48:22.233Z,49.34
2019-03-18T16:50:54.617Z,51.20
2019-03-18T16:53:27.448Z,52.00
2019-03-18T16:55:59.875Z,53.06
2019-03-18T16:58:32.556Z,53.07
2019-03-18T17:01:05.166Z,52.64
2019-03-18T17:03:37.539Z,53.02
2019-03-18T17:06:10.084Z,53.73
2019-03-18T17:08:42.187Z,55.58
2019-03-18T17:11:14.612Z,54.84
2019-03-18T17:13:46.983Z,55.00
2019-03-18T17:16:19.407Z,54.73
2019-03-18T17:18:51.721Z,55.20
2019-03-18T17:21:24.156Z,55.95
2019-03-18T17:23:56.468Z,56.17
2019-03-18T17:26:28.450Z,56.15
2019-03-18T17:29:00.807Z,57.05
2019-03-18T17:31:34.228Z,58.00
2019-03-18T17:34:07.160Z,57.46
2019-03-18T17:36:39.556Z,57.84
2019-03-18T17:39:14.417Z,57.90
2019-03-18T17:41:45.065Z,58.45
2019-03-18T17:44:17.285Z,58.52
2019-03-18T17:46:49.872Z,58.56
2019-03-18T17:49:22.346Z,58.38
2019-03-18T17:51:54.811Z,58.22
2019-03-18T17:54:27.081Z,58.90
2019-03-18T17:57:07.296Z,59.88
2019-03-18T17:59:34.599Z,59.73
2019-03-18T18:02:07.093Z,60.97
2019-03-18T18:04:39.088Z,60.24
2019-03-18T18:07:11.610Z,61.10
2019-03-18T18:09:43.980Z,60.13
2019-03-18T18:12:16.353Z,63.45
2019-03-18T18:14:48.738Z,58.70
2019-03-18T18:17:21.190Z,49.68
2019-03-18T18:19:53.574Z,51.73
2019-03-18T18:22:26.046Z,52.52
2019-03-18T18:24:58.418Z,54.26
2019-03-18T18:27:30.795Z,55.25
2019-03-18T18:30:03.152Z,56.97
2019-03-18T18:32:36.650Z,57.51
2019-03-18T18:35:10.937Z,57.20
2019-03-18T18:37:43.341Z,58.27
2019-03-18T18:40:30.257Z,59.15
2019-03-18T18:43:02.634Z,59.42
2019-03-18T18:45:35.010Z,59.69
2019-03-18T18:48:07.388Z,60.04
2019-03-18T18:50:39.745Z,61.26
2019-03-18T18:53:11.972Z,61.63
2019-03-18T18:55:44.383Z,61.94
2019-03-18T18:58:16.773Z,62.48
2019-03-18T19:00:49.024Z,59.24
2019-03-18T19:03:22.438Z,53.62
2019-03-18T19:05:57.253Z,54.93
2019-03-18T19:08:31.255Z,56.51
2019-03-18T19:11:05.196Z,57.55
2019-03-18T19:13:42.283Z,58.83
2019-03-18T19:16:17.444Z,59.46
2019-03-18T19:18:49.983Z,60.25
2019-03-18T19:21:22.349Z,60.49
2019-03-18T19:23:54.728Z,61.34
2019-03-18T19:26:27.087Z,61.42
2019-03-18T19:29:00.098Z,61.62
2019-03-18T19:31:32.444Z,62.04
2019-03-18T19:34:05.231Z,62.40
2019-03-18T19:36:38.729Z,61.21
2019-03-18T19:39:11.097Z,53.24
2019-03-18T19:41:43.872Z,54.77
2019-03-18T19:44:17.474Z,56.12
2019-03-18T19:46:50.391Z,57.66
2019-03-18T19:49:22.745Z,58.53
2019-03-18T19:51:55.113Z,58.75
2019-03-18T19:54:27.099Z,59.77
2019-03-18T19:56:59.443Z,60.00
2019-03-18T19:59:31.915Z,60.63
2019-03-18T20:02:04.299Z,61.16
2019-03-18T20:04:36.278Z,61.31
2019-03-18T20:07:08.627Z,62.00
2019-03-18T20:09:40.997Z,62.42
2019-03-18T20:12:12.918Z,60.61
2019-03-18T20:14:45.547Z,53.18
2019-03-18T20:17:17.866Z,54.14
2019-03-18T20:19:50.181Z,55.68
2019-03-18T20:22:22.550Z,57.14
2019-03-18T20:24:54.925Z,58.21
2019-03-18T20:27:27.286Z,58.96
2019-03-18T20:30:00.839Z,59.44
2019-03-18T20:32:33.581Z,60.46
2019-03-18T20:35:12.920Z,60.96
2019-03-18T20:37:45.407Z,61.71
2019-03-18T20:40:18.791Z,62.27
2019-03-18T20:42:59.830Z,62.29
2019-03-18T20:45:34.693Z,52.25
2019-03-18T20:48:07.108Z,52.40
2019-03-18T20:50:39.638Z,54.15
2019-03-18T20:53:12.009Z,55.66
2019-03-18T20:55:44.436Z,56.79
2019-03-18T20:58:16.747Z,58.28
2019-03-18T21:00:59.877Z,58.80
2019-03-18T21:03:32.350Z,59.90
2019-03-18T21:06:05.027Z,60.19
2019-03-18T21:08:37.286Z,60.98
2019-03-18T21:11:12.374Z,61.87
2019-03-18T21:13:56.474Z,62.61
2019-03-18T21:16:21.570Z,59.25
2019-03-18T21:18:53.845Z,53.13
2019-03-18T21:21:25.846Z,54.50
2019-03-18T21:23:58.191Z,56.30
2019-03-18T21:26:32.301Z,58.02
2019-03-18T21:29:04.673Z,58.94
2019-03-18T21:31:37.135Z,59.96
2019-03-18T21:34:09.506Z,60.74
2019-03-18T21:36:41.980Z,60.93
2019-03-18T21:39:14.568Z,62.36
2019-03-18T21:41:47.878Z,59.55
2019-03-18T21:44:20.327Z,53.61
2019-03-18T21:46:52.700Z,54.99
2019-03-18T21:49:24.970Z,56.66
2019-03-18T21:51:57.653Z,58.11
2019-03-18T21:54:33.988Z,59.24
2019-03-18T21:57:04.540Z,60.24
2019-03-18T21:59:37.019Z,61.07
2019-03-18T22:02:09.451Z,63.36
2019-03-18T22:04:41.775Z,60.41
2019-03-18T22:07:21.808Z,50.74
2019-03-18T22:10:02.712Z,52.00
2019-03-18T22:13:08.782Z,54.20
2019-03-18T22:15:45.027Z,56.83
2019-03-18T22:18:17.488Z,57.90
2019-03-18T22:20:49.858Z,59.30
2019-03-18T22:23:22.226Z,61.07
2019-03-18T22:25:54.375Z,61.81
2019-03-18T22:28:26.446Z,63.37
2019-03-18T22:30:58.729Z,60.67
2019-03-18T22:33:36.144Z,51.24
2019-03-18T22:36:09.016Z,52.31
2019-03-18T22:38:41.691Z,54.94
2019-03-18T22:41:14.045Z,56.70
2019-03-18T22:43:49.894Z,58.08
2019-03-18T22:46:22.288Z,59.41
2019-03-18T22:48:54.661Z,60.38
2019-03-18T22:51:28.156Z,61.16
2019-03-18T22:54:00.521Z,62.18
2019-03-18T22:56:32.951Z,64.21
2019-03-18T22:59:04.937Z,56.74
2019-03-18T23:01:37.227Z,51.05
2019-03-18T23:04:09.203Z,53.23
2019-03-18T23:06:41.560Z,55.50
2019-03-18T23:09:14.054Z,57.25
2019-03-18T23:11:46.417Z,58.44
2019-03-18T23:14:18.881Z,59.76
2019-03-18T23:16:51.159Z,60.52
2019-03-18T23:19:23.624Z,61.03
2019-03-18T23:21:56.000Z,63.95
2019-03-18T23:24:28.368Z,54.25
2019-03-18T23:27:00.302Z,53.12
2019-03-18T23:29:32.698Z,55.13
2019-03-18T23:32:04.628Z,56.73
2019-03-18T23:34:37.137Z,58.12
2019-03-18T23:37:09.517Z,59.20
2019-03-18T23:39:41.508Z,60.39
2019-03-18T23:42:13.855Z,61.31
2019-03-18T23:44:46.223Z,64.66
2019-03-18T23:47:18.602Z,54.74
2019-03-18T23:49:51.074Z,51.00
2019-03-18T23:52:22.985Z,53.45
2019-03-18T23:54:55.411Z,55.25
2019-03-18T23:57:27.775Z,57.31
